sensor_id;sensor_type;location;lat;lon;timestamp;P1;durP1;ratioP1;P2;durP2;ratioP2
53545;SDS011;39432;51.902;10.844;2023-07-09T00:00:31;5.60;;;3.65;;
53545;SDS011;39432;51.902;10.844;2023-07-09T00:03:03;7.38;;;3.80;;
53545;SDS011;39432;51.902;10.844;2023-07-09T00:05:33;4.78;;;3.63;;
53545;SDS011;39432;51.902;10.844;2023-07-09T00:08:03;10.10;;;4.03;;
53545;SDS011;39432;51.902;10.844;2023-07-09T00:10:33;7.80;;;4.57;;
53545;SDS011;39432;51.902;10.844;2023-07-09T00:13:03;8.38;;;4.05;;
53545;SDS011;39432;51.902;10.844;2023-07-09T00:15:33;9.38;;;5.28;;
53545;SDS011;39432;51.902;10.844;2023-07-09T00:18:07;6.10;;;3.85;;
53545;SDS011;39432;51.902;10.844;2023-07-09T00:20:37;5.70;;;3.85;;
53545;SDS011;39432;51.902;10.844;2023-07-09T00:23:08;7.25;;;3.90;;
53545;SDS011;39432;51.902;10.844;2023-07-09T00:25:40;5.90;;;3.83;;
53545;SDS011;39432;51.902;10.844;2023-07-09T00:28:13;8.93;;;4.03;;
53545;SDS011;39432;51.902;10.844;2023-07-09T00:30:44;7.45;;;4.10;;
53545;SDS011;39432;51.902;10.844;2023-07-09T00:33:17;6.53;;;3.67;;
53545;SDS011;39432;51.902;10.844;2023-07-09T00:35:47;6.97;;;3.83;;
53545;SDS011;39432;51.902;10.844;2023-07-09T00:38:18;7.68;;;3.70;;
53545;SDS011;39432;51.902;10.844;2023-07-09T00:40:58;8.20;;;4.40;;
53545;SDS011;39432;51.902;10.844;2023-07-09T00:43:31;7.82;;;4.78;;
53545;SDS011;39432;51.902;10.844;2023-07-09T00:49:15;6.15;;;4.03;;
53545;SDS011;39432;51.902;10.844;2023-07-09T00:51:49;6.68;;;4.50;;
53545;SDS011;39432;51.902;10.844;2023-07-09T00:54:20;8.93;;;4.75;;
53545;SDS011;39432;51.902;10.844;2023-07-09T00:56:58;8.05;;;4.28;;
53545;SDS011;39432;51.902;10.844;2023-07-09T00:59:32;5.97;;;4.15;;
53545;SDS011;39432;51.902;10.844;2023-07-09T01:02:04;7.25;;;4.28;;
53545;SDS011;39432;51.902;10.844;2023-07-09T01:04:37;5.78;;;3.85;;
53545;SDS011;39432;51.902;10.844;2023-07-09T01:07:08;6.55;;;3.90;;
53545;SDS011;39432;51.902;10.844;2023-07-09T01:09:38;6.57;;;3.65;;
53545;SDS011;39432;51.902;10.844;2023-07-09T01:12:11;5.28;;;3.78;;
53545;SDS011;39432;51.902;10.844;2023-07-09T01:14:42;5.10;;;3.53;;
53545;SDS011;39432;51.902;10.844;2023-07-09T01:17:15;7.20;;;3.92;;
53545;SDS011;39432;51.902;10.844;2023-07-09T01:19:48;8.35;;;3.88;;
53545;SDS011;39432;51.902;10.844;2023-07-09T01:22:22;7.70;;;3.97;;
53545;SDS011;39432;51.902;10.844;2023-07-09T01:24:56;7.30;;;3.80;;
53545;SDS011;39432;51.902;10.844;2023-07-09T01:27:31;6.75;;;4.00;;
53545;SDS011;39432;51.902;10.844;2023-07-09T01:30:05;7.03;;;4.25;;
53545;SDS011;39432;51.902;10.844;2023-07-09T01:32:37;7.18;;;4.32;;
53545;SDS011;39432;51.902;10.844;2023-07-09T01:35:12;5.72;;;3.90;;
53545;SDS011;39432;51.902;10.844;2023-07-09T01:37:46;7.28;;;4.13;;
53545;SDS011;39432;51.902;10.844;2023-07-09T01:40:17;6.40;;;4.47;;
53545;SDS011;39432;51.902;10.844;2023-07-09T01:42:59;8.20;;;4.43;;
53545;SDS011;39432;51.902;10.844;2023-07-09T01:45:33;6.57;;;4.15;;
53545;SDS011;39432;51.902;10.844;2023-07-09T01:48:05;5.65;;;3.95;;
53545;SDS011;39432;51.902;10.844;2023-07-09T01:50:43;9.00;;;4.15;;
53545;SDS011;39432;51.902;10.844;2023-07-09T01:53:16;7.80;;;4.28;;
53545;SDS011;39432;51.902;10.844;2023-07-09T01:55:50;5.95;;;4.18;;
53545;SDS011;39432;51.902;10.844;2023-07-09T01:58:22;5.22;;;4.05;;
53545;SDS011;39432;51.902;10.844;2023-07-09T02:00:52;6.85;;;4.38;;
53545;SDS011;39432;51.902;10.844;2023-07-09T02:03:22;7.03;;;4.03;;
53545;SDS011;39432;51.902;10.844;2023-07-09T02:05:52;7.40;;;3.92;;
53545;SDS011;39432;51.902;10.844;2023-07-09T02:08:27;8.48;;;4.07;;
53545;SDS011;39432;51.902;10.844;2023-07-09T02:10:56;6.70;;;4.15;;
53545;SDS011;39432;51.902;10.844;2023-07-09T02:13:26;10.52;;;4.63;;
53545;SDS011;39432;51.902;10.844;2023-07-09T02:15:56;5.75;;;4.10;;
53545;SDS011;39432;51.902;10.844;2023-07-09T02:18:27;7.55;;;4.80;;
53545;SDS011;39432;51.902;10.844;2023-07-09T02:20:59;6.50;;;4.13;;
53545;SDS011;39432;51.902;10.844;2023-07-09T02:23:32;8.27;;;5.32;;
53545;SDS011;39432;51.902;10.844;2023-07-09T02:26:01;6.05;;;4.38;;
53545;SDS011;39432;51.902;10.844;2023-07-09T02:28:32;8.15;;;4.57;;
53545;SDS011;39432;51.902;10.844;2023-07-09T02:31:02;9.27;;;4.63;;
53545;SDS011;39432;51.902;10.844;2023-07-09T02:33:33;9.73;;;4.72;;
53545;SDS011;39432;51.902;10.844;2023-07-09T02:36:03;8.32;;;4.60;;
53545;SDS011;39432;51.902;10.844;2023-07-09T02:38:36;7.60;;;4.78;;
53545;SDS011;39432;51.902;10.844;2023-07-09T02:41:06;5.85;;;4.65;;
53545;SDS011;39432;51.902;10.844;2023-07-09T02:43:36;6.88;;;4.40;;
53545;SDS011;39432;51.902;10.844;2023-07-09T02:46:06;8.05;;;4.50;;
53545;SDS011;39432;51.902;10.844;2023-07-09T02:48:36;15.52;;;4.70;;
53545;SDS011;39432;51.902;10.844;2023-07-09T02:51:06;8.35;;;5.30;;
53545;SDS011;39432;51.902;10.844;2023-07-09T02:53:38;8.07;;;4.88;;
53545;SDS011;39432;51.902;10.844;2023-07-09T02:56:08;6.55;;;4.65;;
53545;SDS011;39432;51.902;10.844;2023-07-09T02:58:38;9.90;;;4.70;;
53545;SDS011;39432;51.902;10.844;2023-07-09T03:01:07;7.50;;;5.05;;
53545;SDS011;39432;51.902;10.844;2023-07-09T03:03:39;9.07;;;4.75;;
53545;SDS011;39432;51.902;10.844;2023-07-09T03:06:09;8.73;;;5.00;;
53545;SDS011;39432;51.902;10.844;2023-07-09T03:08:41;7.70;;;5.18;;
53545;SDS011;39432;51.902;10.844;2023-07-09T03:11:11;7.80;;;4.68;;
53545;SDS011;39432;51.902;10.844;2023-07-09T03:13:42;7.88;;;4.95;;
53545;SDS011;39432;51.902;10.844;2023-07-09T03:16:12;8.88;;;5.15;;
53545;SDS011;39432;51.902;10.844;2023-07-09T03:18:45;9.30;;;5.00;;
53545;SDS011;39432;51.902;10.844;2023-07-09T03:21:15;7.03;;;4.93;;
53545;SDS011;39432;51.902;10.844;2023-07-09T03:23:47;8.45;;;4.75;;
53545;SDS011;39432;51.902;10.844;2023-07-09T03:26:17;11.07;;;4.70;;
53545;SDS011;39432;51.902;10.844;2023-07-09T03:28:48;8.68;;;5.40;;
53545;SDS011;39432;51.902;10.844;2023-07-09T03:31:18;23.55;;;5.70;;
53545;SDS011;39432;51.902;10.844;2023-07-09T03:33:48;7.70;;;5.10;;
53545;SDS011;39432;51.902;10.844;2023-07-09T03:36:18;8.27;;;4.88;;
53545;SDS011;39432;51.902;10.844;2023-07-09T03:38:51;7.63;;;5.20;;
53545;SDS011;39432;51.902;10.844;2023-07-09T03:41:21;9.30;;;5.32;;
53545;SDS011;39432;51.902;10.844;2023-07-09T03:43:51;8.13;;;4.93;;
53545;SDS011;39432;51.902;10.844;2023-07-09T03:46:21;8.13;;;5.25;;
53545;SDS011;39432;51.902;10.844;2023-07-09T03:48:51;8.15;;;5.00;;
53545;SDS011;39432;51.902;10.844;2023-07-09T03:51:21;11.20;;;5.10;;
53545;SDS011;39432;51.902;10.844;2023-07-09T03:53:53;6.22;;;4.53;;
53545;SDS011;39432;51.902;10.844;2023-07-09T03:56:23;8.30;;;4.95;;
53545;SDS011;39432;51.902;10.844;2023-07-09T03:58:53;8.65;;;5.30;;
53545;SDS011;39432;51.902;10.844;2023-07-09T04:01:23;7.13;;;4.57;;
53545;SDS011;39432;51.902;10.844;2023-07-09T04:03:53;7.22;;;4.60;;
53545;SDS011;39432;51.902;10.844;2023-07-09T04:06:23;8.90;;;4.65;;
53545;SDS011;39432;51.902;10.844;2023-07-09T04:08:55;6.05;;;4.50;;
53545;SDS011;39432;51.902;10.844;2023-07-09T04:11:25;9.07;;;4.78;;
53545;SDS011;39432;51.902;10.844;2023-07-09T04:13:55;8.65;;;4.60;;
53545;SDS011;39432;51.902;10.844;2023-07-09T04:16:43;7.40;;;4.82;;
53545;SDS011;39432;51.902;10.844;2023-07-09T04:19:33;7.45;;;4.43;;
53545;SDS011;39432;51.902;10.844;2023-07-09T04:22:23;8.40;;;5.22;;
53545;SDS011;39432;51.902;10.844;2023-07-09T04:25:16;6.35;;;4.75;;
53545;SDS011;39432;51.902;10.844;2023-07-09T04:28:06;7.80;;;4.72;;
53545;SDS011;39432;51.902;10.844;2023-07-09T04:30:57;8.93;;;4.60;;
53545;SDS011;39432;51.902;10.844;2023-07-09T04:33:47;7.47;;;4.63;;
53545;SDS011;39432;51.902;10.844;2023-07-09T04:36:39;6.90;;;4.68;;
53545;SDS011;39432;51.902;10.844;2023-07-09T04:39:29;8.00;;;4.85;;
53545;SDS011;39432;51.902;10.844;2023-07-09T04:42:22;7.10;;;4.30;;
53545;SDS011;39432;51.902;10.844;2023-07-09T04:45:12;8.40;;;4.78;;
53545;SDS011;39432;51.902;10.844;2023-07-09T04:48:03;7.15;;;4.57;;
53545;SDS011;39432;51.902;10.844;2023-07-09T04:50:54;6.53;;;4.30;;
53545;SDS011;39432;51.902;10.844;2023-07-09T04:53:44;7.47;;;4.70;;
53545;SDS011;39432;51.902;10.844;2023-07-09T04:56:34;6.50;;;4.03;;
53545;SDS011;39432;51.902;10.844;2023-07-09T04:59:27;6.95;;;4.28;;
53545;SDS011;39432;51.902;10.844;2023-07-09T05:02:17;6.97;;;4.50;;
53545;SDS011;39432;51.902;10.844;2023-07-09T05:05:07;7.93;;;3.90;;
53545;SDS011;39432;51.902;10.844;2023-07-09T05:07:58;6.03;;;4.40;;
53545;SDS011;39432;51.902;10.844;2023-07-09T05:10:49;7.05;;;3.50;;
53545;SDS011;39432;51.902;10.844;2023-07-09T05:13:40;5.80;;;3.38;;
53545;SDS011;39432;51.902;10.844;2023-07-09T05:16:33;6.65;;;4.00;;
53545;SDS011;39432;51.902;10.844;2023-07-09T05:19:23;5.50;;;4.07;;
53545;SDS011;39432;51.902;10.844;2023-07-09T05:22:13;8.23;;;3.58;;
53545;SDS011;39432;51.902;10.844;2023-07-09T05:25:03;6.95;;;4.35;;
53545;SDS011;39432;51.902;10.844;2023-07-09T05:27:54;7.00;;;4.28;;
53545;SDS011;39432;51.902;10.844;2023-07-09T05:30:44;7.40;;;3.78;;
53545;SDS011;39432;51.902;10.844;2023-07-09T05:33:37;8.43;;;3.97;;
53545;SDS011;39432;51.902;10.844;2023-07-09T05:36:27;8.07;;;3.70;;
53545;SDS011;39432;51.902;10.844;2023-07-09T05:39:18;10.00;;;3.92;;
53545;SDS011;39432;51.902;10.844;2023-07-09T05:42:08;6.72;;;3.78;;
53545;SDS011;39432;51.902;10.844;2023-07-09T05:44:58;7.35;;;3.70;;
53545;SDS011;39432;51.902;10.844;2023-07-09T05:47:48;5.68;;;3.72;;
53545;SDS011;39432;51.902;10.844;2023-07-09T05:50:41;5.93;;;4.32;;
53545;SDS011;39432;51.902;10.844;2023-07-09T05:53:31;6.47;;;3.78;;
53545;SDS011;39432;51.902;10.844;2023-07-09T05:56:22;7.18;;;3.67;;
53545;SDS011;39432;51.902;10.844;2023-07-09T05:59:12;6.18;;;3.85;;
53545;SDS011;39432;51.902;10.844;2023-07-09T06:02:02;7.57;;;3.88;;
53545;SDS011;39432;51.902;10.844;2023-07-09T06:04:52;9.18;;;4.03;;
53545;SDS011;39432;51.902;10.844;2023-07-09T06:07:46;5.88;;;3.95;;
53545;SDS011;39432;51.902;10.844;2023-07-09T06:10:36;6.35;;;3.95;;
53545;SDS011;39432;51.902;10.844;2023-07-09T06:13:30;10.20;;;3.90;;
53545;SDS011;39432;51.902;10.844;2023-07-09T06:16:21;6.38;;;4.20;;
53545;SDS011;39432;51.902;10.844;2023-07-09T06:19:11;7.50;;;4.20;;
53545;SDS011;39432;51.902;10.844;2023-07-09T06:22:01;6.13;;;3.58;;
53545;SDS011;39432;51.902;10.844;2023-07-09T06:24:54;7.32;;;4.13;;
53545;SDS011;39432;51.902;10.844;2023-07-09T06:27:44;6.10;;;4.30;;
53545;SDS011;39432;51.902;10.844;2023-07-09T06:30:35;8.80;;;4.50;;
53545;SDS011;39432;51.902;10.844;2023-07-09T06:33:26;8.07;;;3.80;;
53545;SDS011;39432;51.902;10.844;2023-07-09T06:36:16;6.18;;;4.20;;
53545;SDS011;39432;51.902;10.844;2023-07-09T06:39:07;10.32;;;4.07;;
53545;SDS011;39432;51.902;10.844;2023-07-09T06:42:00;8.27;;;3.88;;
53545;SDS011;39432;51.902;10.844;2023-07-09T06:45:17;6.88;;;3.80;;
53545;SDS011;39432;51.902;10.844;2023-07-09T06:48:10;6.63;;;4.38;;
53545;SDS011;39432;51.902;10.844;2023-07-09T06:51:01;4.28;;;3.25;;
53545;SDS011;39432;51.902;10.844;2023-07-09T06:53:51;8.25;;;3.70;;
53545;SDS011;39432;51.902;10.844;2023-07-09T06:56:41;6.75;;;4.20;;
53545;SDS011;39432;51.902;10.844;2023-07-09T06:59:34;6.45;;;3.85;;
53545;SDS011;39432;51.902;10.844;2023-07-09T07:02:24;5.20;;;3.83;;
53545;SDS011;39432;51.902;10.844;2023-07-09T07:05:15;5.97;;;3.95;;
53545;SDS011;39432;51.902;10.844;2023-07-09T07:08:05;6.53;;;3.63;;
53545;SDS011;39432;51.902;10.844;2023-07-09T07:10:56;5.68;;;3.75;;
53545;SDS011;39432;51.902;10.844;2023-07-09T07:13:49;5.63;;;3.92;;
53545;SDS011;39432;51.902;10.844;2023-07-09T07:16:42;8.05;;;3.90;;
53545;SDS011;39432;51.902;10.844;2023-07-09T07:19:32;5.68;;;3.72;;
53545;SDS011;39432;51.902;10.844;2023-07-09T07:22:22;6.72;;;3.80;;
53545;SDS011;39432;51.902;10.844;2023-07-09T07:25:13;4.50;;;3.72;;
53545;SDS011;39432;51.902;10.844;2023-07-09T07:28:04;11.27;;;4.07;;
53545;SDS011;39432;51.902;10.844;2023-07-09T07:30:57;7.60;;;3.75;;
53545;SDS011;39432;51.902;10.844;2023-07-09T07:33:51;5.32;;;3.85;;
53545;SDS011;39432;51.902;10.844;2023-07-09T07:36:41;6.30;;;4.20;;
53545;SDS011;39432;51.902;10.844;2023-07-09T07:39:31;4.72;;;3.28;;
53545;SDS011;39432;51.902;10.844;2023-07-09T07:42:21;6.13;;;4.03;;
53545;SDS011;39432;51.902;10.844;2023-07-09T07:45:12;8.35;;;4.15;;
53545;SDS011;39432;51.902;10.844;2023-07-09T07:48:02;9.18;;;4.00;;
53545;SDS011;39432;51.902;10.844;2023-07-09T07:51:00;5.93;;;3.97;;
53545;SDS011;39432;51.902;10.844;2023-07-09T07:53:52;9.38;;;3.92;;
53545;SDS011;39432;51.902;10.844;2023-07-09T07:56:42;4.65;;;3.80;;
53545;SDS011;39432;51.902;10.844;2023-07-09T07:59:32;6.07;;;3.88;;
53545;SDS011;39432;51.902;10.844;2023-07-09T08:02:22;9.80;;;3.90;;
53545;SDS011;39432;51.902;10.844;2023-07-09T08:05:13;12.23;;;3.72;;
53545;SDS011;39432;51.902;10.844;2023-07-09T08:08:06;5.35;;;3.63;;
53545;SDS011;39432;51.902;10.844;2023-07-09T08:11:00;6.90;;;4.90;;
53545;SDS011;39432;51.902;10.844;2023-07-09T08:13:52;6.70;;;4.18;;
53545;SDS011;39432;51.902;10.844;2023-07-09T08:16:42;5.22;;;3.83;;
53545;SDS011;39432;51.902;10.844;2023-07-09T08:19:43;7.18;;;4.10;;
53545;SDS011;39432;51.902;10.844;2023-07-09T08:22:34;8.63;;;3.80;;
53545;SDS011;39432;51.902;10.844;2023-07-09T08:25:29;8.10;;;4.18;;
53545;SDS011;39432;51.902;10.844;2023-07-09T08:28:19;6.80;;;3.85;;
53545;SDS011;39432;51.902;10.844;2023-07-09T08:31:09;6.97;;;3.90;;
53545;SDS011;39432;51.902;10.844;2023-07-09T08:33:59;6.30;;;3.97;;
53545;SDS011;39432;51.902;10.844;2023-07-09T08:36:49;5.97;;;3.95;;
53545;SDS011;39432;51.902;10.844;2023-07-09T08:39:41;6.53;;;4.05;;
53545;SDS011;39432;51.902;10.844;2023-07-09T08:42:39;6.60;;;3.95;;
53545;SDS011;39432;51.902;10.844;2023-07-09T08:45:47;6.72;;;3.85;;
53545;SDS011;39432;51.902;10.844;2023-07-09T08:48:45;6.53;;;3.70;;
53545;SDS011;39432;51.902;10.844;2023-07-09T08:51:38;7.97;;;3.95;;
53545;SDS011;39432;51.902;10.844;2023-07-09T08:54:31;6.45;;;4.13;;
53545;SDS011;39432;51.902;10.844;2023-07-09T08:57:26;11.95;;;3.92;;
53545;SDS011;39432;51.902;10.844;2023-07-09T09:00:21;6.93;;;3.70;;
53545;SDS011;39432;51.902;10.844;2023-07-09T09:03:21;4.38;;;3.55;;
53545;SDS011;39432;51.902;10.844;2023-07-09T09:06:19;5.43;;;3.80;;
53545;SDS011;39432;51.902;10.844;2023-07-09T09:09:12;6.68;;;3.22;;
53545;SDS011;39432;51.902;10.844;2023-07-09T09:12:12;5.22;;;3.50;;
53545;SDS011;39432;51.902;10.844;2023-07-09T09:15:10;5.53;;;3.83;;
53545;SDS011;39432;51.902;10.844;2023-07-09T09:18:17;6.37;;;3.70;;
53545;SDS011;39432;51.902;10.844;2023-07-09T09:21:14;6.43;;;3.92;;
53545;SDS011;39432;51.902;10.844;2023-07-09T09:23:50;4.68;;;3.33;;
53545;SDS011;39432;51.902;10.844;2023-07-09T09:26:27;5.40;;;3.72;;
53545;SDS011;39432;51.902;10.844;2023-07-09T09:29:00;5.72;;;3.60;;
53545;SDS011;39432;51.902;10.844;2023-07-09T09:31:30;8.25;;;3.55;;
53545;SDS011;39432;51.902;10.844;2023-07-09T09:34:02;4.20;;;3.30;;
53545;SDS011;39432;51.902;10.844;2023-07-09T09:36:32;12.45;;;4.22;;
53545;SDS011;39432;51.902;10.844;2023-07-09T09:39:06;4.38;;;3.10;;
53545;SDS011;39432;51.902;10.844;2023-07-09T09:41:39;5.00;;;3.63;;
53545;SDS011;39432;51.902;10.844;2023-07-09T09:44:16;4.90;;;3.10;;
53545;SDS011;39432;51.902;10.844;2023-07-09T09:46:48;5.38;;;3.40;;
53545;SDS011;39432;51.902;10.844;2023-07-09T09:49:21;5.15;;;3.47;;
53545;SDS011;39432;51.902;10.844;2023-07-09T09:51:51;5.72;;;3.10;;
53545;SDS011;39432;51.902;10.844;2023-07-09T09:54:24;5.53;;;3.90;;
53545;SDS011;39432;51.902;10.844;2023-07-09T09:56:56;4.87;;;3.27;;
53545;SDS011;39432;51.902;10.844;2023-07-09T09:59:27;5.70;;;3.30;;
53545;SDS011;39432;51.902;10.844;2023-07-09T10:02:01;5.07;;;3.30;;
53545;SDS011;39432;51.902;10.844;2023-07-09T10:04:45;6.30;;;3.45;;
53545;SDS011;39432;51.902;10.844;2023-07-09T10:07:18;4.63;;;2.92;;
53545;SDS011;39432;51.902;10.844;2023-07-09T10:09:53;5.72;;;3.17;;
53545;SDS011;39432;51.902;10.844;2023-07-09T10:12:33;7.68;;;3.30;;
53545;SDS011;39432;51.902;10.844;2023-07-09T10:15:22;6.78;;;3.28;;
53545;SDS011;39432;51.902;10.844;2023-07-09T10:18:03;6.30;;;3.15;;
53545;SDS011;39432;51.902;10.844;2023-07-09T10:20:47;5.80;;;3.58;;
53545;SDS011;39432;51.902;10.844;2023-07-09T10:23:22;7.15;;;3.63;;
53545;SDS011;39432;51.902;10.844;2023-07-09T10:26:01;6.18;;;3.15;;
53545;SDS011;39432;51.902;10.844;2023-07-09T10:28:50;4.32;;;3.10;;
53545;SDS011;39432;51.902;10.844;2023-07-09T10:31:30;4.03;;;3.28;;
53545;SDS011;39432;51.902;10.844;2023-07-09T10:34:07;6.80;;;3.58;;
53545;SDS011;39432;51.902;10.844;2023-07-09T10:37:06;4.93;;;3.00;;
53545;SDS011;39432;51.902;10.844;2023-07-09T10:39:50;5.05;;;3.15;;
53545;SDS011;39432;51.902;10.844;2023-07-09T10:42:24;5.45;;;3.20;;
53545;SDS011;39432;51.902;10.844;2023-07-09T10:44:58;7.10;;;3.58;;
53545;SDS011;39432;51.902;10.844;2023-07-09T10:47:32;5.47;;;3.33;;
53545;SDS011;39432;51.902;10.844;2023-07-09T10:50:09;5.80;;;3.38;;
53545;SDS011;39432;51.902;10.844;2023-07-09T10:52:48;4.20;;;3.08;;
53545;SDS011;39432;51.902;10.844;2023-07-09T10:55:25;6.75;;;3.05;;
53545;SDS011;39432;51.902;10.844;2023-07-09T10:58:00;5.22;;;3.20;;
53545;SDS011;39432;51.902;10.844;2023-07-09T11:20:34;6.70;;;3.53;;
53545;SDS011;39432;51.902;10.844;2023-07-09T11:23:06;6.57;;;3.70;;
53545;SDS011;39432;51.902;10.844;2023-07-09T11:25:46;6.07;;;3.42;;
53545;SDS011;39432;51.902;10.844;2023-07-09T11:28:17;5.20;;;3.13;;
53545;SDS011;39432;51.902;10.844;2023-07-09T11:31:04;7.43;;;3.60;;
53545;SDS011;39432;51.902;10.844;2023-07-09T11:33:45;4.20;;;2.92;;
53545;SDS011;39432;51.902;10.844;2023-07-09T11:36:26;4.47;;;3.47;;
53545;SDS011;39432;51.902;10.844;2023-07-09T11:38:57;6.03;;;3.20;;
53545;SDS011;39432;51.902;10.844;2023-07-09T11:41:38;4.50;;;3.63;;
53545;SDS011;39432;51.902;10.844;2023-07-09T11:44:14;6.15;;;3.30;;
53545;SDS011;39432;51.902;10.844;2023-07-09T11:46:50;4.68;;;3.25;;
53545;SDS011;39432;51.902;10.844;2023-07-09T11:49:30;4.93;;;3.58;;
53545;SDS011;39432;51.902;10.844;2023-07-09T11:52:06;6.55;;;4.13;;
53545;SDS011;39432;51.902;10.844;2023-07-09T11:54:41;5.90;;;3.40;;
53545;SDS011;39432;51.902;10.844;2023-07-09T11:57:11;4.35;;;3.33;;
53545;SDS011;39432;51.902;10.844;2023-07-09T11:59:42;5.22;;;3.22;;
53545;SDS011;39432;51.902;10.844;2023-07-09T12:02:14;6.32;;;3.22;;
53545;SDS011;39432;51.902;10.844;2023-07-09T12:04:49;5.30;;;3.55;;
53545;SDS011;39432;51.902;10.844;2023-07-09T12:07:24;11.40;;;3.45;;
53545;SDS011;39432;51.902;10.844;2023-07-09T12:09:56;5.53;;;3.47;;
53545;SDS011;39432;51.902;10.844;2023-07-09T12:12:26;8.57;;;3.40;;
53545;SDS011;39432;51.902;10.844;2023-07-09T12:14:57;5.78;;;3.83;;
53545;SDS011;39432;51.902;10.844;2023-07-09T12:17:27;4.40;;;3.47;;
53545;SDS011;39432;51.902;10.844;2023-07-09T12:19:59;4.93;;;3.88;;
53545;SDS011;39432;51.902;10.844;2023-07-09T12:22:32;5.22;;;3.65;;
53545;SDS011;39432;51.902;10.844;2023-07-09T12:25:02;7.72;;;4.05;;
53545;SDS011;39432;51.902;10.844;2023-07-09T12:30:17;4.93;;;3.47;;
53545;SDS011;39432;51.902;10.844;2023-07-09T12:32:48;6.13;;;3.67;;
53545;SDS011;39432;51.902;10.844;2023-07-09T12:35:19;9.27;;;3.80;;
53545;SDS011;39432;51.902;10.844;2023-07-09T12:37:51;6.80;;;3.65;;
53545;SDS011;39432;51.902;10.844;2023-07-09T12:42:58;9.25;;;3.63;;
53545;SDS011;39432;51.902;10.844;2023-07-09T12:45:28;9.93;;;3.75;;
53545;SDS011;39432;51.902;10.844;2023-07-09T12:47:59;5.15;;;3.80;;
53545;SDS011;39432;51.902;10.844;2023-07-09T12:50:29;4.68;;;3.38;;
53545;SDS011;39432;51.902;10.844;2023-07-09T12:53:08;5.75;;;3.55;;
53545;SDS011;39432;51.902;10.844;2023-07-09T12:55:44;9.80;;;4.07;;
53545;SDS011;39432;51.902;10.844;2023-07-09T12:58:18;6.72;;;3.67;;
53545;SDS011;39432;51.902;10.844;2023-07-09T13:01:08;5.40;;;3.60;;
53545;SDS011;39432;51.902;10.844;2023-07-09T13:04:02;5.03;;;3.40;;
53545;SDS011;39432;51.902;10.844;2023-07-09T13:06:34;5.57;;;3.28;;
53545;SDS011;39432;51.902;10.844;2023-07-09T13:09:10;6.18;;;3.58;;
53545;SDS011;39432;51.902;10.844;2023-07-09T13:11:45;5.00;;;3.50;;
53545;SDS011;39432;51.902;10.844;2023-07-09T13:14:18;13.77;;;4.22;;
53545;SDS011;39432;51.902;10.844;2023-07-09T13:16:49;5.20;;;4.03;;
53545;SDS011;39432;51.902;10.844;2023-07-09T13:19:19;5.00;;;3.75;;
53545;SDS011;39432;51.902;10.844;2023-07-09T13:21:49;5.85;;;3.28;;
53545;SDS011;39432;51.902;10.844;2023-07-09T13:24:27;7.00;;;3.63;;
53545;SDS011;39432;51.902;10.844;2023-07-09T13:26:59;6.22;;;3.63;;
53545;SDS011;39432;51.902;10.844;2023-07-09T13:29:30;6.78;;;3.65;;
53545;SDS011;39432;51.902;10.844;2023-07-09T13:32:00;5.80;;;4.15;;
53545;SDS011;39432;51.902;10.844;2023-07-09T13:34:30;3.88;;;3.25;;
53545;SDS011;39432;51.902;10.844;2023-07-09T13:37:02;7.53;;;3.63;;
53545;SDS011;39432;51.902;10.844;2023-07-09T13:39:34;6.68;;;3.50;;
53545;SDS011;39432;51.902;10.844;2023-07-09T13:42:05;6.32;;;3.80;;
53545;SDS011;39432;51.902;10.844;2023-07-09T13:44:39;5.43;;;4.07;;
53545;SDS011;39432;51.902;10.844;2023-07-09T13:47:11;7.25;;;3.63;;
53545;SDS011;39432;51.902;10.844;2023-07-09T13:49:44;7.70;;;3.70;;
53545;SDS011;39432;51.902;10.844;2023-07-09T13:52:17;9.77;;;3.80;;
53545;SDS011;39432;51.902;10.844;2023-07-09T13:54:52;4.82;;;3.65;;
53545;SDS011;39432;51.902;10.844;2023-07-09T13:57:22;5.97;;;3.67;;
53545;SDS011;39432;51.902;10.844;2023-07-09T13:59:52;5.47;;;4.25;;
53545;SDS011;39432;51.902;10.844;2023-07-09T14:02:23;5.70;;;3.95;;
53545;SDS011;39432;51.902;10.844;2023-07-09T14:04:59;6.95;;;3.70;;
53545;SDS011;39432;51.902;10.844;2023-07-09T14:07:30;5.95;;;4.13;;
53545;SDS011;39432;51.902;10.844;2023-07-09T14:10:05;7.82;;;3.90;;
53545;SDS011;39432;51.902;10.844;2023-07-09T14:12:40;7.68;;;3.95;;
53545;SDS011;39432;51.902;10.844;2023-07-09T14:15:13;11.15;;;4.07;;
53545;SDS011;39432;51.902;10.844;2023-07-09T14:17:44;6.03;;;3.40;;
53545;SDS011;39432;51.902;10.844;2023-07-09T14:20:16;5.45;;;4.15;;
53545;SDS011;39432;51.902;10.844;2023-07-09T14:22:48;4.75;;;3.70;;
53545;SDS011;39432;51.902;10.844;2023-07-09T14:25:22;6.15;;;3.92;;
53545;SDS011;39432;51.902;10.844;2023-07-09T14:27:54;5.05;;;3.83;;
53545;SDS011;39432;51.902;10.844;2023-07-09T14:30:24;5.45;;;3.97;;
53545;SDS011;39432;51.902;10.844;2023-07-09T14:32:55;6.88;;;4.13;;
53545;SDS011;39432;51.902;10.844;2023-07-09T14:35:25;5.63;;;4.07;;
53545;SDS011;39432;51.902;10.844;2023-07-09T14:37:55;6.45;;;3.85;;
53545;SDS011;39432;51.902;10.844;2023-07-09T14:40:29;7.20;;;3.88;;
53545;SDS011;39432;51.902;10.844;2023-07-09T14:42:59;6.07;;;3.97;;
53545;SDS011;39432;51.902;10.844;2023-07-09T14:45:29;6.28;;;3.70;;
53545;SDS011;39432;51.902;10.844;2023-07-09T14:47:59;11.60;;;3.78;;
53545;SDS011;39432;51.902;10.844;2023-07-09T14:50:29;6.13;;;3.90;;
53545;SDS011;39432;51.902;10.844;2023-07-09T14:52:59;6.22;;;3.30;;
53545;SDS011;39432;51.902;10.844;2023-07-09T14:55:31;7.40;;;3.90;;
53545;SDS011;39432;51.902;10.844;2023-07-09T14:58:01;5.82;;;3.83;;
53545;SDS011;39432;51.902;10.844;2023-07-09T15:00:32;10.50;;;4.00;;
53545;SDS011;39432;51.902;10.844;2023-07-09T15:03:03;8.48;;;3.90;;
53545;SDS011;39432;51.902;10.844;2023-07-09T15:05:32;5.10;;;3.78;;
53545;SDS011;39432;51.902;10.844;2023-07-09T15:08:06;5.15;;;3.80;;
53545;SDS011;39432;51.902;10.844;2023-07-09T15:10:44;6.15;;;4.00;;
53545;SDS011;39432;51.902;10.844;2023-07-09T15:13:16;7.95;;;4.10;;
53545;SDS011;39432;51.902;10.844;2023-07-09T15:15:48;5.22;;;3.50;;
53545;SDS011;39432;51.902;10.844;2023-07-09T15:18:18;8.32;;;3.90;;
53545;SDS011;39432;51.902;10.844;2023-07-09T15:20:49;6.25;;;3.47;;
53545;SDS011;39432;51.902;10.844;2023-07-09T15:23:21;5.82;;;3.95;;
53545;SDS011;39432;51.902;10.844;2023-07-09T15:25:54;8.55;;;3.78;;
53545;SDS011;39432;51.902;10.844;2023-07-09T15:28:24;7.28;;;3.85;;
53545;SDS011;39432;51.902;10.844;2023-07-09T15:30:54;6.25;;;3.92;;
53545;SDS011;39432;51.902;10.844;2023-07-09T15:33:24;5.80;;;4.03;;
53545;SDS011;39432;51.902;10.844;2023-07-09T15:35:53;8.85;;;4.22;;
53545;SDS011;39432;51.902;10.844;2023-07-09T15:38:27;9.65;;;4.20;;
53545;SDS011;39432;51.902;10.844;2023-07-09T15:41:00;9.18;;;3.95;;
53545;SDS011;39432;51.902;10.844;2023-07-09T15:43:31;5.15;;;4.07;;
53545;SDS011;39432;51.902;10.844;2023-07-09T15:46:01;7.47;;;4.22;;
53545;SDS011;39432;51.902;10.844;2023-07-09T15:48:33;6.15;;;3.97;;
53545;SDS011;39432;51.902;10.844;2023-07-09T15:51:04;6.40;;;3.92;;
53545;SDS011;39432;51.902;10.844;2023-07-09T15:53:35;6.00;;;3.80;;
53545;SDS011;39432;51.902;10.844;2023-07-09T15:56:24;5.32;;;3.50;;
53545;SDS011;39432;51.902;10.844;2023-07-09T15:58:57;5.13;;;4.10;;
53545;SDS011;39432;51.902;10.844;2023-07-09T16:01:27;4.95;;;3.97;;
53545;SDS011;39432;51.902;10.844;2023-07-09T16:03:58;8.23;;;3.67;;
53545;SDS011;39432;51.902;10.844;2023-07-09T16:06:35;5.85;;;3.88;;
53545;SDS011;39432;51.902;10.844;2023-07-09T16:09:06;6.72;;;4.22;;